sensor_id;sensor_type;location;lat;lon;timestamp;P1;durP1;ratioP1;P2;durP2;ratioP2
5965;SDS011;3009;43.224;27.976;2022-08-21T00:01:45;18.20;;;14.00;;
5965;SDS011;3009;43.224;27.976;2022-08-21T00:04:13;13.90;;;12.50;;
5965;SDS011;3009;43.224;27.976;2022-08-21T00:06:48;15.80;;;13.97;;
5965;SDS011;3009;43.224;27.976;2022-08-21T00:09:18;15.63;;;14.03;;
5965;SDS011;3009;43.224;27.976;2022-08-21T00:11:47;16.50;;;14.80;;
5965;SDS011;3009;43.224;27.976;2022-08-21T00:14:15;15.97;;;14.37;;
5965;SDS011;3009;43.224;27.976;2022-08-21T00:16:44;17.30;;;14.10;;
5965;SDS011;3009;43.224;27.976;2022-08-21T00:19:12;14.00;;;12.67;;
5965;SDS011;3009;43.224;27.976;2022-08-21T00:21:40;15.37;;;13.97;;
5965;SDS011;3009;43.224;27.976;2022-08-21T00:24:10;15.10;;;13.60;;
5965;SDS011;3009;43.224;27.976;2022-08-21T00:26:40;16.07;;;14.60;;
5965;SDS011;3009;43.224;27.976;2022-08-21T00:29:09;13.67;;;12.07;;
5965;SDS011;3009;43.224;27.976;2022-08-21T00:31:38;17.07;;;14.57;;
5965;SDS011;3009;43.224;27.976;2022-08-21T00:34:06;16.30;;;13.23;;
5965;SDS011;3009;43.224;27.976;2022-08-21T00:36:35;19.53;;;14.43;;
5965;SDS011;3009;43.224;27.976;2022-08-21T00:39:05;16.00;;;14.40;;
5965;SDS011;3009;43.224;27.976;2022-08-21T00:41:35;16.00;;;14.57;;
5965;SDS011;3009;43.224;27.976;2022-08-21T00:44:07;16.03;;;14.63;;
5965;SDS011;3009;43.224;27.976;2022-08-21T00:46:37;16.43;;;14.50;;
5965;SDS011;3009;43.224;27.976;2022-08-21T00:49:06;15.53;;;14.03;;
5965;SDS011;3009;43.224;27.976;2022-08-21T00:51:38;16.23;;;14.70;;
5965;SDS011;3009;43.224;27.976;2022-08-21T00:54:09;18.50;;;14.17;;
5965;SDS011;3009;43.224;27.976;2022-08-21T00:56:45;15.87;;;14.17;;
5965;SDS011;3009;43.224;27.976;2022-08-21T00:59:18;15.60;;;14.00;;
5965;SDS011;3009;43.224;27.976;2022-08-21T01:01:48;16.60;;;14.93;;
5965;SDS011;3009;43.224;27.976;2022-08-21T01:04:19;15.07;;;13.50;;
5965;SDS011;3009;43.224;27.976;2022-08-21T01:06:47;17.27;;;15.77;;
5965;SDS011;3009;43.224;27.976;2022-08-21T01:09:16;21.03;;;15.60;;
5965;SDS011;3009;43.224;27.976;2022-08-21T01:11:45;16.90;;;15.20;;
5965;SDS011;3009;43.224;27.976;2022-08-21T01:14:14;16.67;;;14.87;;
5965;SDS011;3009;43.224;27.976;2022-08-21T01:16:46;16.40;;;15.00;;
5965;SDS011;3009;43.224;27.976;2022-08-21T01:19:18;16.93;;;15.27;;
5965;SDS011;3009;43.224;27.976;2022-08-21T01:21:49;17.50;;;15.63;;
5965;SDS011;3009;43.224;27.976;2022-08-21T01:24:18;16.43;;;15.03;;
5965;SDS011;3009;43.224;27.976;2022-08-21T01:26:46;16.10;;;14.70;;
5965;SDS011;3009;43.224;27.976;2022-08-21T01:29:20;17.20;;;15.60;;
5965;SDS011;3009;43.224;27.976;2022-08-21T01:31:58;16.30;;;14.60;;
5965;SDS011;3009;43.224;27.976;2022-08-21T01:34:31;16.97;;;15.43;;
5965;SDS011;3009;43.224;27.976;2022-08-21T01:37:03;16.57;;;14.97;;
5965;SDS011;3009;43.224;27.976;2022-08-21T01:39:32;16.90;;;15.30;;
5965;SDS011;3009;43.224;27.976;2022-08-21T01:42:01;21.03;;;15.33;;
5965;SDS011;3009;43.224;27.976;2022-08-21T01:44:30;27.97;;;16.70;;
5965;SDS011;3009;43.224;27.976;2022-08-21T01:47:00;18.67;;;15.60;;
5965;SDS011;3009;43.224;27.976;2022-08-21T01:49:30;18.20;;;15.93;;
5965;SDS011;3009;43.224;27.976;2022-08-21T01:51:58;18.83;;;16.93;;
5965;SDS011;3009;43.224;27.976;2022-08-21T01:54:28;18.13;;;16.40;;
5965;SDS011;3009;43.224;27.976;2022-08-21T01:56:56;16.87;;;15.13;;
5965;SDS011;3009;43.224;27.976;2022-08-21T01:59:26;17.23;;;15.20;;
5965;SDS011;3009;43.224;27.976;2022-08-21T02:01:55;18.87;;;14.73;;
5965;SDS011;3009;43.224;27.976;2022-08-21T02:04:23;15.47;;;13.93;;
5965;SDS011;3009;43.224;27.976;2022-08-21T02:06:52;15.93;;;14.33;;
5965;SDS011;3009;43.224;27.976;2022-08-21T02:09:20;16.47;;;14.83;;
5965;SDS011;3009;43.224;27.976;2022-08-21T02:11:51;18.13;;;15.90;;
5965;SDS011;3009;43.224;27.976;2022-08-21T02:14:20;15.60;;;14.20;;
5965;SDS011;3009;43.224;27.976;2022-08-21T02:16:58;16.47;;;14.77;;
5965;SDS011;3009;43.224;27.976;2022-08-21T02:19:34;15.63;;;14.13;;
5965;SDS011;3009;43.224;27.976;2022-08-21T02:22:05;17.17;;;14.90;;
5965;SDS011;3009;43.224;27.976;2022-08-21T02:24:35;15.93;;;14.37;;
5965;SDS011;3009;43.224;27.976;2022-08-21T02:27:22;16.57;;;14.87;;
5965;SDS011;3009;43.224;27.976;2022-08-21T02:29:52;16.87;;;15.23;;
5965;SDS011;3009;43.224;27.976;2022-08-21T02:32:20;15.57;;;14.17;;
5965;SDS011;3009;43.224;27.976;2022-08-21T02:34:48;16.60;;;15.00;;
5965;SDS011;3009;43.224;27.976;2022-08-21T02:37:17;16.33;;;14.30;;
5965;SDS011;3009;43.224;27.976;2022-08-21T02:39:45;15.63;;;13.97;;
5965;SDS011;3009;43.224;27.976;2022-08-21T02:42:13;15.17;;;13.77;;
5965;SDS011;3009;43.224;27.976;2022-08-21T02:44:43;15.97;;;14.57;;
5965;SDS011;3009;43.224;27.976;2022-08-21T02:47:11;15.90;;;14.40;;
5965;SDS011;3009;43.224;27.976;2022-08-21T02:49:39;16.63;;;14.83;;
5965;SDS011;3009;43.224;27.976;2022-08-21T02:52:08;16.50;;;14.90;;
5965;SDS011;3009;43.224;27.976;2022-08-21T02:54:37;15.13;;;13.70;;
5965;SDS011;3009;43.224;27.976;2022-08-21T02:57:06;15.43;;;14.00;;
5965;SDS011;3009;43.224;27.976;2022-08-21T02:59:34;15.93;;;14.43;;
5965;SDS011;3009;43.224;27.976;2022-08-21T03:02:04;16.70;;;15.00;;
5965;SDS011;3009;43.224;27.976;2022-08-21T03:04:32;16.07;;;14.30;;
5965;SDS011;3009;43.224;27.976;2022-08-21T03:07:01;17.90;;;16.20;;
5965;SDS011;3009;43.224;27.976;2022-08-21T03:09:32;18.23;;;16.53;;
5965;SDS011;3009;43.224;27.976;2022-08-21T03:12:00;23.80;;;15.73;;
5965;SDS011;3009;43.224;27.976;2022-08-21T03:14:28;17.67;;;15.90;;
5965;SDS011;3009;43.224;27.976;2022-08-21T03:16:56;19.73;;;16.40;;
5965;SDS011;3009;43.224;27.976;2022-08-21T03:19:26;15.60;;;13.93;;
5965;SDS011;3009;43.224;27.976;2022-08-21T03:21:54;23.60;;;15.90;;
5965;SDS011;3009;43.224;27.976;2022-08-21T03:24:22;19.13;;;17.13;;
5965;SDS011;3009;43.224;27.976;2022-08-21T03:26:50;17.90;;;16.10;;
5965;SDS011;3009;43.224;27.976;2022-08-21T03:29:19;18.33;;;16.53;;
5965;SDS011;3009;43.224;27.976;2022-08-21T03:31:47;16.90;;;15.20;;
5965;SDS011;3009;43.224;27.976;2022-08-21T03:34:15;18.07;;;16.10;;
5965;SDS011;3009;43.224;27.976;2022-08-21T03:36:45;18.70;;;16.80;;
5965;SDS011;3009;43.224;27.976;2022-08-21T03:39:13;15.90;;;14.40;;
5965;SDS011;3009;43.224;27.976;2022-08-21T03:41:41;16.80;;;15.30;;
5965;SDS011;3009;43.224;27.976;2022-08-21T03:44:10;17.97;;;16.10;;
5965;SDS011;3009;43.224;27.976;2022-08-21T03:46:39;17.77;;;16.07;;
5965;SDS011;3009;43.224;27.976;2022-08-21T03:49:07;16.10;;;14.50;;
5965;SDS011;3009;43.224;27.976;2022-08-21T03:51:35;17.67;;;15.90;;
5965;SDS011;3009;43.224;27.976;2022-08-21T03:54:05;16.53;;;14.67;;
5965;SDS011;3009;43.224;27.976;2022-08-21T03:56:34;16.07;;;14.30;;
5965;SDS011;3009;43.224;27.976;2022-08-21T03:59:02;16.43;;;14.20;;
5965;SDS011;3009;43.224;27.976;2022-08-21T04:01:31;15.77;;;14.13;;
5965;SDS011;3009;43.224;27.976;2022-08-21T04:03:59;13.70;;;12.50;;
5965;SDS011;3009;43.224;27.976;2022-08-21T04:06:28;14.10;;;12.77;;
5965;SDS011;3009;43.224;27.976;2022-08-21T04:09:03;12.20;;;11.03;;
5965;SDS011;3009;43.224;27.976;2022-08-21T04:11:32;12.17;;;11.07;;
5965;SDS011;3009;43.224;27.976;2022-08-21T04:14:00;10.93;;;10.03;;
5965;SDS011;3009;43.224;27.976;2022-08-21T04:16:29;10.20;;;9.40;;
5965;SDS011;3009;43.224;27.976;2022-08-21T04:18:57;10.40;;;9.57;;
5965;SDS011;3009;43.224;27.976;2022-08-21T04:21:25;10.20;;;9.30;;
5965;SDS011;3009;43.224;27.976;2022-08-21T04:23:54;12.30;;;11.10;;
5965;SDS011;3009;43.224;27.976;2022-08-21T04:26:24;11.00;;;10.10;;
5965;SDS011;3009;43.224;27.976;2022-08-21T04:28:52;10.63;;;9.73;;
5965;SDS011;3009;43.224;27.976;2022-08-21T04:31:22;12.33;;;11.07;;
5965;SDS011;3009;43.224;27.976;2022-08-21T04:33:50;11.90;;;10.80;;
5965;SDS011;3009;43.224;27.976;2022-08-21T04:36:18;11.20;;;10.20;;
5965;SDS011;3009;43.224;27.976;2022-08-21T04:38:49;11.33;;;10.10;;
5965;SDS011;3009;43.224;27.976;2022-08-21T04:41:20;14.47;;;11.20;;
5965;SDS011;3009;43.224;27.976;2022-08-21T04:43:55;11.80;;;10.77;;
5965;SDS011;3009;43.224;27.976;2022-08-21T04:46:23;9.97;;;9.07;;
5965;SDS011;3009;43.224;27.976;2022-08-21T04:48:51;10.83;;;9.83;;
5965;SDS011;3009;43.224;27.976;2022-08-21T04:51:21;11.03;;;10.13;;
5965;SDS011;3009;43.224;27.976;2022-08-21T04:53:56;11.53;;;9.30;;
5965;SDS011;3009;43.224;27.976;2022-08-21T04:56:30;14.13;;;9.10;;
5965;SDS011;3009;43.224;27.976;2022-08-21T04:59:04;12.83;;;9.60;;
5965;SDS011;3009;43.224;27.976;2022-08-21T05:01:39;11.00;;;10.10;;
5965;SDS011;3009;43.224;27.976;2022-08-21T05:04:08;11.30;;;10.40;;
5965;SDS011;3009;43.224;27.976;2022-08-21T05:06:40;10.50;;;9.70;;
5965;SDS011;3009;43.224;27.976;2022-08-21T05:09:11;10.97;;;10.07;;
5965;SDS011;3009;43.224;27.976;2022-08-21T05:11:42;11.47;;;9.67;;
5965;SDS011;3009;43.224;27.976;2022-08-21T05:14:12;9.33;;;8.63;;
5965;SDS011;3009;43.224;27.976;2022-08-21T05:16:41;9.40;;;8.70;;
5965;SDS011;3009;43.224;27.976;2022-08-21T05:19:10;9.50;;;8.60;;
5965;SDS011;3009;43.224;27.976;2022-08-21T05:21:40;9.90;;;9.03;;
5965;SDS011;3009;43.224;27.976;2022-08-21T05:24:10;9.93;;;8.90;;
5965;SDS011;3009;43.224;27.976;2022-08-21T05:26:38;14.30;;;8.73;;
5965;SDS011;3009;43.224;27.976;2022-08-21T05:29:13;22.73;;;9.63;;
5965;SDS011;3009;43.224;27.976;2022-08-21T05:31:44;10.40;;;9.40;;
5965;SDS011;3009;43.224;27.976;2022-08-21T05:34:13;9.50;;;8.60;;
5965;SDS011;3009;43.224;27.976;2022-08-21T05:36:42;11.13;;;9.90;;
5965;SDS011;3009;43.224;27.976;2022-08-21T05:39:11;10.73;;;9.60;;
5965;SDS011;3009;43.224;27.976;2022-08-21T05:41:39;10.10;;;9.10;;
5965;SDS011;3009;43.224;27.976;2022-08-21T05:44:07;9.77;;;8.93;;
5965;SDS011;3009;43.224;27.976;2022-08-21T05:46:38;9.13;;;8.43;;
5965;SDS011;3009;43.224;27.976;2022-08-21T05:49:06;8.90;;;8.07;;
5965;SDS011;3009;43.224;27.976;2022-08-21T05:51:35;9.77;;;8.77;;
5965;SDS011;3009;43.224;27.976;2022-08-21T05:54:04;8.60;;;7.90;;
5965;SDS011;3009;43.224;27.976;2022-08-21T05:56:32;8.40;;;7.90;;
5965;SDS011;3009;43.224;27.976;2022-08-21T05:59:01;8.23;;;7.23;;
5965;SDS011;3009;43.224;27.976;2022-08-21T06:01:34;8.37;;;7.57;;
5965;SDS011;3009;43.224;27.976;2022-08-21T06:04:04;8.93;;;8.23;;
5965;SDS011;3009;43.224;27.976;2022-08-21T06:06:33;14.65;;;7.93;;
5965;SDS011;3009;43.224;27.976;2022-08-21T06:09:02;7.55;;;7.05;;
5965;SDS011;3009;43.224;27.976;2022-08-21T06:11:31;8.07;;;7.18;;
5965;SDS011;3009;43.224;27.976;2022-08-21T06:14:00;8.27;;;7.45;;
5965;SDS011;3009;43.224;27.976;2022-08-21T06:16:28;12.85;;;9.70;;
5965;SDS011;3009;43.224;27.976;2022-08-21T06:18:56;10.90;;;9.85;;
5965;SDS011;3009;43.224;27.976;2022-08-21T06:21:30;9.27;;;8.60;;
5965;SDS011;3009;43.224;27.976;2022-08-21T06:23:58;9.40;;;8.57;;
5965;SDS011;3009;43.224;27.976;2022-08-21T06:26:26;8.52;;;7.82;;
5965;SDS011;3009;43.224;27.976;2022-08-21T06:28:54;8.20;;;7.53;;
5965;SDS011;3009;43.224;27.976;2022-08-21T06:31:24;9.52;;;8.68;;
5965;SDS011;3009;43.224;27.976;2022-08-21T06:33:53;8.82;;;7.97;;
5965;SDS011;3009;43.224;27.976;2022-08-21T06:36:22;8.43;;;7.72;;
5965;SDS011;3009;43.224;27.976;2022-08-21T06:38:52;7.70;;;7.10;;
5965;SDS011;3009;43.224;27.976;2022-08-21T06:41:23;10.88;;;7.05;;
5965;SDS011;3009;43.224;27.976;2022-08-21T06:43:52;7.68;;;6.57;;
5965;SDS011;3009;43.224;27.976;2022-08-21T06:46:21;7.03;;;6.63;;
5965;SDS011;3009;43.224;27.976;2022-08-21T06:48:50;7.28;;;6.68;;
5965;SDS011;3009;43.224;27.976;2022-08-21T06:51:18;7.90;;;7.07;;
5965;SDS011;3009;43.224;27.976;2022-08-21T06:53:46;7.93;;;7.45;;
5965;SDS011;3009;43.224;27.976;2022-08-21T06:56:16;9.38;;;6.93;;
5965;SDS011;3009;43.224;27.976;2022-08-21T06:58:45;7.57;;;6.88;;
5965;SDS011;3009;43.224;27.976;2022-08-21T07:01:13;7.63;;;6.87;;
5965;SDS011;3009;43.224;27.976;2022-08-21T07:03:42;9.63;;;6.83;;
5965;SDS011;3009;43.224;27.976;2022-08-21T07:06:11;8.53;;;7.87;;
5965;SDS011;3009;43.224;27.976;2022-08-21T07:08:39;7.67;;;7.00;;
5965;SDS011;3009;43.224;27.976;2022-08-21T07:11:09;9.53;;;8.00;;
5965;SDS011;3009;43.224;27.976;2022-08-21T07:13:41;8.17;;;7.50;;
5965;SDS011;3009;43.224;27.976;2022-08-21T07:16:09;7.87;;;7.27;;
5965;SDS011;3009;43.224;27.976;2022-08-21T07:18:38;7.00;;;6.40;;
5965;SDS011;3009;43.224;27.976;2022-08-21T07:21:06;9.27;;;7.30;;
5965;SDS011;3009;43.224;27.976;2022-08-21T07:23:36;12.83;;;7.37;;
5965;SDS011;3009;43.224;27.976;2022-08-21T07:26:07;14.67;;;7.70;;
5965;SDS011;3009;43.224;27.976;2022-08-21T07:28:38;7.50;;;6.80;;
5965;SDS011;3009;43.224;27.976;2022-08-21T07:31:08;7.30;;;6.77;;
5965;SDS011;3009;43.224;27.976;2022-08-21T07:33:39;13.03;;;7.67;;
5965;SDS011;3009;43.224;27.976;2022-08-21T07:36:08;12.50;;;7.67;;
5965;SDS011;3009;43.224;27.976;2022-08-21T07:38:37;8.87;;;8.10;;
5965;SDS011;3009;43.224;27.976;2022-08-21T07:41:13;7.97;;;7.27;;
5965;SDS011;3009;43.224;27.976;2022-08-21T07:43:43;11.10;;;8.20;;
5965;SDS011;3009;43.224;27.976;2022-08-21T07:46:13;17.53;;;8.43;;
5965;SDS011;3009;43.224;27.976;2022-08-21T07:48:42;8.90;;;8.00;;
5965;SDS011;3009;43.224;27.976;2022-08-21T07:51:11;9.47;;;8.43;;
5965;SDS011;3009;43.224;27.976;2022-08-21T07:53:41;9.90;;;8.90;;
5965;SDS011;3009;43.224;27.976;2022-08-21T07:56:10;10.77;;;8.27;;
5965;SDS011;3009;43.224;27.976;2022-08-21T07:58:38;9.30;;;8.50;;
5965;SDS011;3009;43.224;27.976;2022-08-21T08:01:07;9.73;;;8.80;;
5965;SDS011;3009;43.224;27.976;2022-08-21T08:03:36;10.13;;;9.23;;
5965;SDS011;3009;43.224;27.976;2022-08-21T08:06:05;9.83;;;8.80;;
5965;SDS011;3009;43.224;27.976;2022-08-21T08:08:38;16.30;;;9.10;;
5965;SDS011;3009;43.224;27.976;2022-08-21T08:11:07;9.47;;;8.50;;
5965;SDS011;3009;43.224;27.976;2022-08-21T08:13:40;9.57;;;7.77;;
5965;SDS011;3009;43.224;27.976;2022-08-21T08:16:11;9.50;;;8.43;;
5965;SDS011;3009;43.224;27.976;2022-08-21T08:18:41;10.77;;;9.00;;
5965;SDS011;3009;43.224;27.976;2022-08-21T08:21:11;10.37;;;9.37;;
5965;SDS011;3009;43.224;27.976;2022-08-21T08:23:40;12.20;;;11.00;;
5965;SDS011;3009;43.224;27.976;2022-08-21T08:26:10;13.90;;;9.50;;
5965;SDS011;3009;43.224;27.976;2022-08-21T08:28:39;13.17;;;9.77;;
5965;SDS011;3009;43.224;27.976;2022-08-21T08:31:07;15.70;;;9.97;;
5965;SDS011;3009;43.224;27.976;2022-08-21T08:33:35;10.27;;;9.47;;
5965;SDS011;3009;43.224;27.976;2022-08-21T08:36:05;10.67;;;9.67;;
5965;SDS011;3009;43.224;27.976;2022-08-21T08:38:41;16.73;;;10.07;;
5965;SDS011;3009;43.224;27.976;2022-08-21T08:41:12;11.20;;;10.17;;
5965;SDS011;3009;43.224;27.976;2022-08-21T08:43:42;14.40;;;10.67;;
5965;SDS011;3009;43.224;27.976;2022-08-21T08:46:18;19.53;;;10.90;;
5965;SDS011;3009;43.224;27.976;2022-08-21T08:48:51;12.73;;;10.17;;
5965;SDS011;3009;43.224;27.976;2022-08-21T08:51:23;12.30;;;9.53;;
5965;SDS011;3009;43.224;27.976;2022-08-21T08:53:58;18.27;;;9.90;;
5965;SDS011;3009;43.224;27.976;2022-08-21T08:56:31;10.90;;;9.13;;
5965;SDS011;3009;43.224;27.976;2022-08-21T08:59:02;11.07;;;9.00;;
5965;SDS011;3009;43.224;27.976;2022-08-21T09:01:37;13.67;;;9.00;;
5965;SDS011;3009;43.224;27.976;2022-08-21T09:04:06;14.20;;;9.47;;
5965;SDS011;3009;43.224;27.976;2022-08-21T09:06:40;15.40;;;10.27;;
5965;SDS011;3009;43.224;27.976;2022-08-21T09:09:22;11.47;;;9.70;;
5965;SDS011;3009;43.224;27.976;2022-08-21T09:12:00;13.93;;;9.70;;
5965;SDS011;3009;43.224;27.976;2022-08-21T09:14:37;13.27;;;10.13;;
5965;SDS011;3009;43.224;27.976;2022-08-21T09:17:23;11.30;;;9.53;;
5965;SDS011;3009;43.224;27.976;2022-08-21T09:20:04;11.33;;;9.67;;
5965;SDS011;3009;43.224;27.976;2022-08-21T09:22:54;15.97;;;9.83;;
5965;SDS011;3009;43.224;27.976;2022-08-21T09:25:38;10.77;;;9.03;;
5965;SDS011;3009;43.224;27.976;2022-08-21T09:28:13;10.03;;;9.03;;
5965;SDS011;3009;43.224;27.976;2022-08-21T09:30:41;13.73;;;10.50;;
5965;SDS011;3009;43.224;27.976;2022-08-21T09:33:09;15.83;;;10.10;;
5965;SDS011;3009;43.224;27.976;2022-08-21T09:35:52;17.37;;;10.53;;
5965;SDS011;3009;43.224;27.976;2022-08-21T09:38:26;11.23;;;9.40;;
5965;SDS011;3009;43.224;27.976;2022-08-21T09:40:59;16.43;;;9.97;;
5965;SDS011;3009;43.224;27.976;2022-08-21T09:43:29;15.73;;;10.70;;
5965;SDS011;3009;43.224;27.976;2022-08-21T09:46:03;11.33;;;10.43;;
5965;SDS011;3009;43.224;27.976;2022-08-21T09:48:41;16.47;;;9.90;;
5965;SDS011;3009;43.224;27.976;2022-08-21T09:51:13;16.50;;;11.43;;
5965;SDS011;3009;43.224;27.976;2022-08-21T09:53:45;11.80;;;10.17;;
5965;SDS011;3009;43.224;27.976;2022-08-21T09:56:17;15.00;;;11.60;;
5965;SDS011;3009;43.224;27.976;2022-08-21T09:59:14;12.67;;;11.07;;
5965;SDS011;3009;43.224;27.976;2022-08-21T10:01:46;13.47;;;10.10;;
5965;SDS011;3009;43.224;27.976;2022-08-21T10:04:19;11.60;;;10.40;;
5965;SDS011;3009;43.224;27.976;2022-08-21T10:06:49;11.80;;;10.70;;
5965;SDS011;3009;43.224;27.976;2022-08-21T10:09:24;13.07;;;9.97;;
5965;SDS011;3009;43.224;27.976;2022-08-21T10:11:56;11.57;;;10.37;;
5965;SDS011;3009;43.224;27.976;2022-08-21T10:14:40;12.10;;;10.33;;
5965;SDS011;3009;43.224;27.976;2022-08-21T10:17:20;11.80;;;10.70;;
5965;SDS011;3009;43.224;27.976;2022-08-21T10:19:56;17.87;;;12.80;;
5965;SDS011;3009;43.224;27.976;2022-08-21T10:22:34;17.47;;;11.13;;
5965;SDS011;3009;43.224;27.976;2022-08-21T10:25:13;15.20;;;11.43;;
5965;SDS011;3009;43.224;27.976;2022-08-21T10:27:50;11.57;;;10.40;;
5965;SDS011;3009;43.224;27.976;2022-08-21T10:30:30;18.73;;;11.80;;
5965;SDS011;3009;43.224;27.976;2022-08-21T10:33:14;15.63;;;11.30;;
5965;SDS011;3009;43.224;27.976;2022-08-21T10:35:51;21.40;;;12.63;;
5965;SDS011;3009;43.224;27.976;2022-08-21T10:38:44;13.37;;;12.17;;
5965;SDS011;3009;43.224;27.976;2022-08-21T10:42:01;13.90;;;12.70;;
5965;SDS011;3009;43.224;27.976;2022-08-21T10:44:41;13.83;;;12.43;;
5965;SDS011;3009;43.224;27.976;2022-08-21T10:47:18;17.90;;;13.77;;
5965;SDS011;3009;43.224;27.976;2022-08-21T10:49:54;22.77;;;13.27;;
5965;SDS011;3009;43.224;27.976;2022-08-21T10:52:35;13.93;;;12.73;;
5965;SDS011;3009;43.224;27.976;2022-08-21T10:55:14;14.57;;;13.37;;
5965;SDS011;3009;43.224;27.976;2022-08-21T10:57:47;13.57;;;12.27;;
5965;SDS011;3009;43.224;27.976;2022-08-21T11:00:20;16.40;;;13.70;;
5965;SDS011;3009;43.224;27.976;2022-08-21T11:02:51;14.90;;;13.37;;
5965;SDS011;3009;43.224;27.976;2022-08-21T11:05:25;18.23;;;13.30;;
5965;SDS011;3009;43.224;27.976;2022-08-21T11:08:00;14.10;;;12.30;;
5965;SDS011;3009;43.224;27.976;2022-08-21T11:10:33;14.53;;;13.10;;
5965;SDS011;3009;43.224;27.976;2022-08-21T11:13:26;20.13;;;13.00;;
5965;SDS011;3009;43.224;27.976;2022-08-21T11:16:02;12.80;;;11.47;;
5965;SDS011;3009;43.224;27.976;2022-08-21T11:18:37;18.00;;;13.57;;
5965;SDS011;3009;43.224;27.976;2022-08-21T11:21:10;16.20;;;12.93;;
5965;SDS011;3009;43.224;27.976;2022-08-21T11:23:54;18.47;;;11.90;;
5965;SDS011;3009;43.224;27.976;2022-08-21T11:26:32;12.90;;;11.70;;
5965;SDS011;3009;43.224;27.976;2022-08-21T11:29:08;14.47;;;12.97;;
5965;SDS011;3009;43.224;27.976;2022-08-21T11:31:45;13.40;;;12.10;;
5965;SDS011;3009;43.224;27.976;2022-08-21T11:37:16;19.60;;;12.67;;
5965;SDS011;3009;43.224;27.976;2022-08-21T11:39:52;13.93;;;11.57;;
5965;SDS011;3009;43.224;27.976;2022-08-21T11:42:29;21.60;;;12.93;;
5965;SDS011;3009;43.224;27.976;2022-08-21T11:45:12;14.30;;;12.20;;
5965;SDS011;3009;43.224;27.976;2022-08-21T11:47:54;28.73;;;13.27;;
5965;SDS011;3009;43.224;27.976;2022-08-21T11:50:28;17.50;;;11.07;;
5965;SDS011;3009;43.224;27.976;2022-08-21T11:53:03;13.50;;;11.70;;
5965;SDS011;3009;43.224;27.976;2022-08-21T11:55:38;15.10;;;11.47;;
5965;SDS011;3009;43.224;27.976;2022-08-21T11:58:14;13.33;;;12.00;;
5965;SDS011;3009;43.224;27.976;2022-08-21T12:00:50;13.33;;;11.93;;
5965;SDS011;3009;43.224;27.976;2022-08-21T12:03:24;13.90;;;11.13;;
5965;SDS011;3009;43.224;27.976;2022-08-21T12:05:56;14.10;;;11.03;;
5965;SDS011;3009;43.224;27.976;2022-08-21T12:08:27;17.10;;;10.30;;
5965;SDS011;3009;43.224;27.976;2022-08-21T12:11:00;12.20;;;10.80;;
5965;SDS011;3009;43.224;27.976;2022-08-21T12:13:33;24.07;;;10.83;;
5965;SDS011;3009;43.224;27.976;2022-08-21T12:16:10;17.73;;;11.47;;
5965;SDS011;3009;43.224;27.976;2022-08-21T12:18:40;32.77;;;11.23;;
5965;SDS011;3009;43.224;27.976;2022-08-21T12:21:22;15.63;;;11.23;;
5965;SDS011;3009;43.224;27.976;2022-08-21T12:23:59;15.57;;;10.83;;
5965;SDS011;3009;43.224;27.976;2022-08-21T12:26:32;13.97;;;10.90;;
5965;SDS011;3009;43.224;27.976;2022-08-21T12:29:07;16.43;;;11.00;;
5965;SDS011;3009;43.224;27.976;2022-08-21T12:31:50;12.00;;;10.77;;
5965;SDS011;3009;43.224;27.976;2022-08-21T12:34:22;11.70;;;10.60;;
5965;SDS011;3009;43.224;27.976;2022-08-21T12:36:54;11.83;;;10.63;;
5965;SDS011;3009;43.224;27.976;2022-08-21T12:39:27;23.73;;;11.20;;
5965;SDS011;3009;43.224;27.976;2022-08-21T12:41:59;15.43;;;10.30;;
5965;SDS011;3009;43.224;27.976;2022-08-21T12:44:35;22.37;;;10.80;;
5965;SDS011;3009;43.224;27.976;2022-08-21T12:47:14;20.60;;;11.00;;
5965;SDS011;3009;43.224;27.976;2022-08-21T12:49:47;12.33;;;10.60;;
5965;SDS011;3009;43.224;27.976;2022-08-21T12:52:27;11.87;;;10.30;;
5965;SDS011;3009;43.224;27.976;2022-08-21T12:55:04;19.33;;;11.23;;
5965;SDS011;3009;43.224;27.976;2022-08-21T12:57:35;12.53;;;11.33;;
5965;SDS011;3009;43.224;27.976;2022-08-21T13:00:06;12.43;;;10.90;;
5965;SDS011;3009;43.224;27.976;2022-08-21T13:02:42;18.53;;;11.33;;
5965;SDS011;3009;43.224;27.976;2022-08-21T13:05:14;11.27;;;10.27;;
5965;SDS011;3009;43.224;27.976;2022-08-21T13:07:55;13.30;;;11.20;;
5965;SDS011;3009;43.224;27.976;2022-08-21T13:10:24;11.97;;;10.87;;
5965;SDS011;3009;43.224;27.976;2022-08-21T13:12:55;15.73;;;11.63;;
5965;SDS011;3009;43.224;27.976;2022-08-21T13:15:38;12.43;;;11.23;;
5965;SDS011;3009;43.224;27.976;2022-08-21T13:18:20;22.17;;;11.80;;
5965;SDS011;3009;43.224;27.976;2022-08-21T13:20:51;12.50;;;11.40;;
5965;SDS011;3009;43.224;27.976;2022-08-21T13:23:30;12.10;;;11.00;;
5965;SDS011;3009;43.224;27.976;2022-08-21T13:25:58;18.80;;;11.63;;
5965;SDS011;3009;43.224;27.976;2022-08-21T13:28:32;23.47;;;11.53;;
5965;SDS011;3009;43.224;27.976;2022-08-21T13:31:06;12.97;;;10.30;;
5965;SDS011;3009;43.224;27.976;2022-08-21T13:33:38;16.13;;;11.50;;
5965;SDS011;3009;43.224;27.976;2022-08-21T13:36:09;12.33;;;11.13;;
5965;SDS011;3009;43.224;27.976;2022-08-21T13:38:41;12.97;;;10.97;;
5965;SDS011;3009;43.224;27.976;2022-08-21T13:41:20;15.30;;;11.40;;
5965;SDS011;3009;43.224;27.976;2022-08-21T13:43:56;12.33;;;10.60;;
5965;SDS011;3009;43.224;27.976;2022-08-21T13:46:26;13.13;;;11.00;;
5965;SDS011;3009;43.224;27.976;2022-08-21T13:48:57;14.83;;;11.50;;
5965;SDS011;3009;43.224;27.976;2022-08-21T13:51:27;13.70;;;10.60;;
5965;SDS011;3009;43.224;27.976;2022-08-21T13:53:55;16.83;;;12.80;;
5965;SDS011;3009;43.224;27.976;2022-08-21T13:56:25;13.93;;;11.90;;
5965;SDS011;3009;43.224;27.976;2022-08-21T13:58:56;14.93;;;11.50;;
5965;SDS011;3009;43.224;27.976;2022-08-21T14:01:26;14.03;;;11.37;;
5965;SDS011;3009;43.224;27.976;2022-08-21T14:03:59;14.00;;;10.83;;
5965;SDS011;3009;43.224;27.976;2022-08-21T14:06:33;21.90;;;10.83;;
5965;SDS011;3009;43.224;27.976;2022-08-21T14:09:07;16.83;;;11.90;;
5965;SDS011;3009;43.224;27.976;2022-08-21T14:11:37;11.67;;;10.50;;
5965;SDS011;3009;43.224;27.976;2022-08-21T14:14:06;11.80;;;10.70;;
5965;SDS011;3009;43.224;27.976;2022-08-21T14:16:52;20.93;;;11.77;;
5965;SDS011;3009;43.224;27.976;2022-08-21T14:19:25;17.90;;;13.53;;
5965;SDS011;3009;43.224;27.976;2022-08-21T14:21:55;15.23;;;11.83;;
5965;SDS011;3009;43.224;27.976;2022-08-21T14:24:27;11.87;;;10.63;;
5965;SDS011;3009;43.224;27.976;2022-08-21T14:27:03;12.17;;;10.87;;
5965;SDS011;3009;43.224;27.976;2022-08-21T14:29:34;13.80;;;10.60;;
5965;SDS011;3009;43.224;27.976;2022-08-21T14:32:11;11.93;;;10.70;;
5965;SDS011;3009;43.224;27.976;2022-08-21T14:34:52;12.37;;;10.80;;
5965;SDS011;3009;43.224;27.976;2022-08-21T14:37:24;15.73;;;10.70;;
5965;SDS011;3009;43.224;27.976;2022-08-21T14:39:53;11.90;;;10.37;;
5965;SDS011;3009;43.224;27.976;2022-08-21T14:42:21;17.93;;;11.70;;
5965;SDS011;3009;43.224;27.976;2022-08-21T14:44:50;11.93;;;10.80;;
5965;SDS011;3009;43.224;27.976;2022-08-21T14:47:19;12.33;;;11.20;;
5965;SDS011;3009;43.224;27.976;2022-08-21T14:49:48;17.20;;;10.23;;
5965;SDS011;3009;43.224;27.976;2022-08-21T14:52:18;12.70;;;10.63;;
5965;SDS011;3009;43.224;27.976;2022-08-21T14:54:46;16.77;;;11.37;;
5965;SDS011;3009;43.224;27.976;2022-08-21T14:57:14;13.40;;;10.57;;
5965;SDS011;3009;43.224;27.976;2022-08-21T14:59:42;15.30;;;10.63;;
5965;SDS011;3009;43.224;27.976;2022-08-21T15:02:11;12.57;;;11.37;;
5965;SDS011;3009;43.224;27.976;2022-08-21T15:04:39;11.77;;;10.67;;
5965;SDS011;3009;43.224;27.976;2022-08-21T15:07:08;13.50;;;11.27;;
5965;SDS011;3009;43.224;27.976;2022-08-21T15:09:37;12.20;;;11.10;;
5965;SDS011;3009;43.224;27.976;2022-08-21T15:12:06;12.23;;;11.10;;